sensor_id;sensor_type;location;lat;lon;timestamp;P1;durP1;ratioP1;P2;durP2;ratioP2
37151;SDS011;23046;50.112;8.952;2023-01-28T00:00:03;3.13;;;2.08;;
37151;SDS011;23046;50.112;8.952;2023-01-28T00:00:15;2.83;;;1.98;;
37151;SDS011;23046;50.112;8.952;2023-01-28T00:00:25;2.08;;;1.70;;
37151;SDS011;23046;50.112;8.952;2023-01-28T00:00:36;1.70;;;1.60;;
37151;SDS011;23046;50.112;8.952;2023-01-28T00:00:46;1.60;;;1.50;;
37151;SDS011;23046;50.112;8.952;2023-01-28T00:00:56;1.73;;;1.63;;
37151;SDS011;23046;50.112;8.952;2023-01-28T00:01:07;1.90;;;1.80;;
37151;SDS011;23046;50.112;8.952;2023-01-28T00:01:17;1.90;;;1.77;;
37151;SDS011;23046;50.112;8.952;2023-01-28T00:01:28;1.80;;;1.70;;
37151;SDS011;23046;50.112;8.952;2023-01-28T00:01:38;1.70;;;1.60;;
37151;SDS011;23046;50.112;8.952;2023-01-28T00:01:48;1.70;;;1.60;;
37151;SDS011;23046;50.112;8.952;2023-01-28T00:01:58;1.90;;;1.70;;
37151;SDS011;23046;50.112;8.952;2023-01-28T00:02:11;1.97;;;1.77;;
37151;SDS011;23046;50.112;8.952;2023-01-28T00:02:21;2.00;;;1.90;;
37151;SDS011;23046;50.112;8.952;2023-01-28T00:02:32;2.03;;;1.93;;
37151;SDS011;23046;50.112;8.952;2023-01-28T00:02:42;2.00;;;1.90;;
37151;SDS011;23046;50.112;8.952;2023-01-28T00:02:52;2.00;;;1.90;;
37151;SDS011;23046;50.112;8.952;2023-01-28T00:03:03;1.80;;;1.70;;
37151;SDS011;23046;50.112;8.952;2023-01-28T00:03:13;1.90;;;1.80;;
37151;SDS011;23046;50.112;8.952;2023-01-28T00:03:24;1.80;;;1.70;;
37151;SDS011;23046;50.112;8.952;2023-01-28T00:03:35;2.00;;;1.80;;
37151;SDS011;23046;50.112;8.952;2023-01-28T00:03:48;1.80;;;1.67;;
37151;SDS011;23046;50.112;8.952;2023-01-28T00:03:58;1.73;;;1.63;;
37151;SDS011;23046;50.112;8.952;2023-01-28T00:04:09;1.80;;;1.70;;
37151;SDS011;23046;50.112;8.952;2023-01-28T00:04:19;2.00;;;1.63;;
37151;SDS011;23046;50.112;8.952;2023-01-28T00:04:30;2.67;;;1.80;;
37151;SDS011;23046;50.112;8.952;2023-01-28T00:04:40;3.27;;;1.80;;
37151;SDS011;23046;50.112;8.952;2023-01-28T00:04:50;3.13;;;1.90;;
37151;SDS011;23046;50.112;8.952;2023-01-28T00:05:01;2.78;;;1.80;;
37151;SDS011;23046;50.112;8.952;2023-01-28T00:05:11;2.30;;;1.87;;
37151;SDS011;23046;50.112;8.952;2023-01-28T00:05:21;2.17;;;1.73;;
37151;SDS011;23046;50.112;8.952;2023-01-28T00:05:32;2.20;;;1.73;;
37151;SDS011;23046;50.112;8.952;2023-01-28T00:05:43;2.17;;;1.63;;
37151;SDS011;23046;50.112;8.952;2023-01-28T00:06:00;1.90;;;1.70;;
37151;SDS011;23046;50.112;8.952;2023-01-28T00:06:13;1.90;;;1.77;;
37151;SDS011;23046;50.112;8.952;2023-01-28T00:06:24;2.10;;;1.90;;
37151;SDS011;23046;50.112;8.952;2023-01-28T00:06:34;2.10;;;1.90;;
37151;SDS011;23046;50.112;8.952;2023-01-28T00:06:44;1.83;;;1.73;;
37151;SDS011;23046;50.112;8.952;2023-01-28T00:06:55;1.80;;;1.70;;
37151;SDS011;23046;50.112;8.952;2023-01-28T00:07:05;1.70;;;1.60;;
37151;SDS011;23046;50.112;8.952;2023-01-28T00:07:15;1.90;;;1.80;;
37151;SDS011;23046;50.112;8.952;2023-01-28T00:07:25;1.77;;;1.67;;
37151;SDS011;23046;50.112;8.952;2023-01-28T00:07:36;1.80;;;1.70;;
37151;SDS011;23046;50.112;8.952;2023-01-28T00:07:48;1.70;;;1.60;;
37151;SDS011;23046;50.112;8.952;2023-01-28T00:07:58;2.15;;;1.60;;
37151;SDS011;23046;50.112;8.952;2023-01-28T00:08:08;2.20;;;1.60;;
37151;SDS011;23046;50.112;8.952;2023-01-28T00:08:19;2.23;;;1.67;;
37151;SDS011;23046;50.112;8.952;2023-01-28T00:08:29;2.00;;;1.80;;
37151;SDS011;23046;50.112;8.952;2023-01-28T00:08:39;1.85;;;1.75;;
37151;SDS011;23046;50.112;8.952;2023-01-28T00:08:50;1.90;;;1.80;;
37151;SDS011;23046;50.112;8.952;2023-01-28T00:09:01;1.80;;;1.70;;
37151;SDS011;23046;50.112;8.952;2023-01-28T00:09:11;2.37;;;1.87;;
37151;SDS011;23046;50.112;8.952;2023-01-28T00:09:22;2.65;;;1.90;;
37151;SDS011;23046;50.112;8.952;2023-01-28T00:09:32;2.70;;;1.90;;
37151;SDS011;23046;50.112;8.952;2023-01-28T00:09:42;1.87;;;1.73;;
37151;SDS011;23046;50.112;8.952;2023-01-28T00:09:52;2.40;;;1.70;;
37151;SDS011;23046;50.112;8.952;2023-01-28T00:10:03;2.60;;;1.70;;
37151;SDS011;23046;50.112;8.952;2023-01-28T00:10:13;2.73;;;1.80;;
37151;SDS011;23046;50.112;8.952;2023-01-28T00:10:23;1.90;;;1.75;;
37151;SDS011;23046;50.112;8.952;2023-01-28T00:10:35;1.85;;;1.75;;
37151;SDS011;23046;50.112;8.952;2023-01-28T00:10:45;1.98;;;1.88;;
37151;SDS011;23046;50.112;8.952;2023-01-28T00:10:59;1.87;;;1.77;;
37151;SDS011;23046;50.112;8.952;2023-01-28T00:11:10;1.90;;;1.80;;
37151;SDS011;23046;50.112;8.952;2023-01-28T00:11:21;2.17;;;1.98;;
37151;SDS011;23046;50.112;8.952;2023-01-28T00:11:31;2.93;;;2.13;;
37151;SDS011;23046;50.112;8.952;2023-01-28T00:11:42;2.80;;;1.90;;
37151;SDS011;23046;50.112;8.952;2023-01-28T00:11:52;2.47;;;1.60;;
37151;SDS011;23046;50.112;8.952;2023-01-28T00:12:03;3.07;;;1.70;;
37151;SDS011;23046;50.112;8.952;2023-01-28T00:12:13;3.00;;;1.73;;
37151;SDS011;23046;50.112;8.952;2023-01-28T00:12:23;3.07;;;1.80;;
37151;SDS011;23046;50.112;8.952;2023-01-28T00:12:34;2.20;;;1.80;;
37151;SDS011;23046;50.112;8.952;2023-01-28T00:12:44;2.10;;;1.80;;
37151;SDS011;23046;50.112;8.952;2023-01-28T00:12:54;2.17;;;1.83;;
37151;SDS011;23046;50.112;8.952;2023-01-28T00:13:05;1.70;;;1.60;;
37151;SDS011;23046;50.112;8.952;2023-01-28T00:13:15;1.90;;;1.70;;
37151;SDS011;23046;50.112;8.952;2023-01-28T00:13:26;2.07;;;1.80;;
37151;SDS011;23046;50.112;8.952;2023-01-28T00:13:36;2.10;;;1.80;;
37151;SDS011;23046;50.112;8.952;2023-01-28T00:13:49;2.00;;;1.80;;
37151;SDS011;23046;50.112;8.952;2023-01-28T00:14:00;2.00;;;1.80;;
37151;SDS011;23046;50.112;8.952;2023-01-28T00:14:13;2.20;;;2.00;;
37151;SDS011;23046;50.112;8.952;2023-01-28T00:14:23;2.10;;;1.90;;
37151;SDS011;23046;50.112;8.952;2023-01-28T00:14:34;1.93;;;1.80;;
37151;SDS011;23046;50.112;8.952;2023-01-28T00:14:44;1.73;;;1.50;;
37151;SDS011;23046;50.112;8.952;2023-01-28T00:14:56;2.30;;;1.60;;
37151;SDS011;23046;50.112;8.952;2023-01-28T00:15:07;2.23;;;1.60;;
37151;SDS011;23046;50.112;8.952;2023-01-28T00:15:17;1.90;;;1.70;;
37151;SDS011;23046;50.112;8.952;2023-01-28T00:15:27;1.70;;;1.60;;
37151;SDS011;23046;50.112;8.952;2023-01-28T00:15:38;2.07;;;1.80;;
37151;SDS011;23046;50.112;8.952;2023-01-28T00:15:53;3.80;;;1.80;;
37151;SDS011;23046;50.112;8.952;2023-01-28T00:16:04;3.60;;;1.80;;
37151;SDS011;23046;50.112;8.952;2023-01-28T00:16:15;1.85;;;1.73;;
37151;SDS011;23046;50.112;8.952;2023-01-28T00:16:25;1.87;;;1.77;;
37151;SDS011;23046;50.112;8.952;2023-01-28T00:16:39;1.88;;;1.73;;
37151;SDS011;23046;50.112;8.952;2023-01-28T00:16:49;1.90;;;1.80;;
37151;SDS011;23046;50.112;8.952;2023-01-28T00:16:59;2.03;;;1.90;;
37151;SDS011;23046;50.112;8.952;2023-01-28T00:17:09;1.90;;;1.80;;
37151;SDS011;23046;50.112;8.952;2023-01-28T00:17:19;2.00;;;1.83;;
37151;SDS011;23046;50.112;8.952;2023-01-28T00:17:30;2.30;;;1.90;;
37151;SDS011;23046;50.112;8.952;2023-01-28T00:17:40;2.40;;;1.90;;
37151;SDS011;23046;50.112;8.952;2023-01-28T00:17:50;2.40;;;1.90;;
37151;SDS011;23046;50.112;8.952;2023-01-28T00:18:01;1.85;;;1.75;;
37151;SDS011;23046;50.112;8.952;2023-01-28T00:18:11;1.80;;;1.70;;
37151;SDS011;23046;50.112;8.952;2023-01-28T00:18:22;1.70;;;1.60;;
37151;SDS011;23046;50.112;8.952;2023-01-28T00:18:32;1.80;;;1.70;;
37151;SDS011;23046;50.112;8.952;2023-01-28T00:18:43;1.92;;;1.83;;
37151;SDS011;23046;50.112;8.952;2023-01-28T00:18:53;1.83;;;1.73;;
37151;SDS011;23046;50.112;8.952;2023-01-28T00:19:04;1.93;;;1.73;;
37151;SDS011;23046;50.112;8.952;2023-01-28T00:19:14;1.80;;;1.70;;
37151;SDS011;23046;50.112;8.952;2023-01-28T00:19:24;1.80;;;1.70;;
37151;SDS011;23046;50.112;8.952;2023-01-28T00:19:34;1.87;;;1.77;;
37151;SDS011;23046;50.112;8.952;2023-01-28T00:19:44;1.90;;;1.80;;
37151;SDS011;23046;50.112;8.952;2023-01-28T00:19:55;1.85;;;1.70;;
37151;SDS011;23046;50.112;8.952;2023-01-28T00:20:05;1.70;;;1.60;;
37151;SDS011;23046;50.112;8.952;2023-01-28T00:20:15;1.97;;;1.77;;
37151;SDS011;23046;50.112;8.952;2023-01-28T00:20:25;2.10;;;1.90;;
37151;SDS011;23046;50.112;8.952;2023-01-28T00:20:36;2.13;;;2.03;;
37151;SDS011;23046;50.112;8.952;2023-01-28T00:20:54;2.00;;;1.90;;
37151;SDS011;23046;50.112;8.952;2023-01-28T00:21:14;1.70;;;1.60;;
37151;SDS011;23046;50.112;8.952;2023-01-28T00:21:24;1.85;;;1.75;;
37151;SDS011;23046;50.112;8.952;2023-01-28T00:21:35;2.05;;;1.85;;
37151;SDS011;23046;50.112;8.952;2023-01-28T00:21:45;2.05;;;1.85;;
37151;SDS011;23046;50.112;8.952;2023-01-28T00:21:55;1.93;;;1.80;;
37151;SDS011;23046;50.112;8.952;2023-01-28T00:22:06;2.07;;;1.90;;
37151;SDS011;23046;50.112;8.952;2023-01-28T00:22:16;1.90;;;1.80;;
37151;SDS011;23046;50.112;8.952;2023-01-28T00:22:26;2.03;;;1.83;;
37151;SDS011;23046;50.112;8.952;2023-01-28T00:22:36;2.60;;;1.70;;
37151;SDS011;23046;50.112;8.952;2023-01-28T00:22:47;3.00;;;1.80;;
37151;SDS011;23046;50.112;8.952;2023-01-28T00:22:57;2.80;;;1.80;;
37151;SDS011;23046;50.112;8.952;2023-01-28T00:23:07;1.97;;;1.77;;
37151;SDS011;23046;50.112;8.952;2023-01-28T00:23:18;1.80;;;1.70;;
37151;SDS011;23046;50.112;8.952;2023-01-28T00:23:28;1.92;;;1.80;;
37151;SDS011;23046;50.112;8.952;2023-01-28T00:23:40;2.15;;;1.95;;
37151;SDS011;23046;50.112;8.952;2023-01-28T00:23:52;2.05;;;1.88;;
37151;SDS011;23046;50.112;8.952;2023-01-28T00:24:03;1.95;;;1.85;;
37151;SDS011;23046;50.112;8.952;2023-01-28T00:24:15;1.90;;;1.80;;
37151;SDS011;23046;50.112;8.952;2023-01-28T00:24:26;1.90;;;1.80;;
37151;SDS011;23046;50.112;8.952;2023-01-28T00:24:36;1.90;;;1.80;;
37151;SDS011;23046;50.112;8.952;2023-01-28T00:24:46;2.10;;;1.90;;
37151;SDS011;23046;50.112;8.952;2023-01-28T00:24:56;2.10;;;1.90;;
37151;SDS011;23046;50.112;8.952;2023-01-28T00:25:07;2.20;;;1.70;;
37151;SDS011;23046;50.112;8.952;2023-01-28T00:25:17;2.03;;;1.58;;
37151;SDS011;23046;50.112;8.952;2023-01-28T00:25:28;1.90;;;1.63;;
37151;SDS011;23046;50.112;8.952;2023-01-28T00:25:39;1.95;;;1.80;;
37151;SDS011;23046;50.112;8.952;2023-01-28T00:25:49;2.10;;;1.90;;
37151;SDS011;23046;50.112;8.952;2023-01-28T00:26:00;1.97;;;1.87;;
37151;SDS011;23046;50.112;8.952;2023-01-28T00:26:12;1.88;;;1.77;;
37151;SDS011;23046;50.112;8.952;2023-01-28T00:26:26;1.98;;;1.88;;
37151;SDS011;23046;50.112;8.952;2023-01-28T00:26:36;2.35;;;2.00;;
37151;SDS011;23046;50.112;8.952;2023-01-28T00:26:46;2.53;;;2.07;;
37151;SDS011;23046;50.112;8.952;2023-01-28T00:26:57;2.23;;;1.97;;
37151;SDS011;23046;50.112;8.952;2023-01-28T00:27:07;2.00;;;1.90;;
37151;SDS011;23046;50.112;8.952;2023-01-28T00:27:19;1.90;;;1.80;;
37151;SDS011;23046;50.112;8.952;2023-01-28T00:27:29;1.90;;;1.80;;
37151;SDS011;23046;50.112;8.952;2023-01-28T00:27:41;2.30;;;1.80;;
37151;SDS011;23046;50.112;8.952;2023-01-28T00:27:51;2.47;;;1.87;;
37151;SDS011;23046;50.112;8.952;2023-01-28T00:28:01;2.93;;;1.80;;
37151;SDS011;23046;50.112;8.952;2023-01-28T00:28:12;2.43;;;1.90;;
37151;SDS011;23046;50.112;8.952;2023-01-28T00:28:22;2.37;;;1.90;;
37151;SDS011;23046;50.112;8.952;2023-01-28T00:28:32;2.28;;;2.08;;
37151;SDS011;23046;50.112;8.952;2023-01-28T00:28:43;2.20;;;2.00;;
37151;SDS011;23046;50.112;8.952;2023-01-28T00:28:53;2.17;;;1.98;;
37151;SDS011;23046;50.112;8.952;2023-01-28T00:29:03;1.93;;;1.83;;
37151;SDS011;23046;50.112;8.952;2023-01-28T00:29:14;2.03;;;1.93;;
37151;SDS011;23046;50.112;8.952;2023-01-28T00:29:24;2.00;;;1.90;;
37151;SDS011;23046;50.112;8.952;2023-01-28T00:29:34;1.90;;;1.80;;
37151;SDS011;23046;50.112;8.952;2023-01-28T00:29:44;1.80;;;1.70;;
37151;SDS011;23046;50.112;8.952;2023-01-28T00:29:56;1.90;;;1.70;;
37151;SDS011;23046;50.112;8.952;2023-01-28T00:30:06;2.10;;;1.70;;
37151;SDS011;23046;50.112;8.952;2023-01-28T00:30:19;2.30;;;1.75;;
37151;SDS011;23046;50.112;8.952;2023-01-28T00:30:30;3.00;;;1.90;;
37151;SDS011;23046;50.112;8.952;2023-01-28T00:30:40;3.03;;;1.80;;
37151;SDS011;23046;50.112;8.952;2023-01-28T00:30:50;2.93;;;1.70;;
37151;SDS011;23046;50.112;8.952;2023-01-28T00:31:14;2.07;;;1.50;;
37151;SDS011;23046;50.112;8.952;2023-01-28T00:31:26;1.80;;;1.70;;
37151;SDS011;23046;50.112;8.952;2023-01-28T00:31:36;1.80;;;1.70;;
37151;SDS011;23046;50.112;8.952;2023-01-28T00:31:47;1.80;;;1.70;;
37151;SDS011;23046;50.112;8.952;2023-01-28T00:31:57;1.90;;;1.80;;
37151;SDS011;23046;50.112;8.952;2023-01-28T00:32:07;1.83;;;1.73;;
37151;SDS011;23046;50.112;8.952;2023-01-28T00:32:17;1.70;;;1.60;;
37151;SDS011;23046;50.112;8.952;2023-01-28T00:32:28;1.80;;;1.70;;
37151;SDS011;23046;50.112;8.952;2023-01-28T00:32:38;1.83;;;1.73;;
37151;SDS011;23046;50.112;8.952;2023-01-28T00:32:48;1.87;;;1.77;;
37151;SDS011;23046;50.112;8.952;2023-01-28T00:32:58;1.90;;;1.80;;
37151;SDS011;23046;50.112;8.952;2023-01-28T00:33:09;2.00;;;1.90;;
37151;SDS011;23046;50.112;8.952;2023-01-28T00:33:19;2.00;;;1.90;;
37151;SDS011;23046;50.112;8.952;2023-01-28T00:33:30;1.77;;;1.67;;
37151;SDS011;23046;50.112;8.952;2023-01-28T00:33:40;1.60;;;1.50;;
37151;SDS011;23046;50.112;8.952;2023-01-28T00:33:52;1.60;;;1.50;;
37151;SDS011;23046;50.112;8.952;2023-01-28T00:34:03;1.60;;;1.50;;
37151;SDS011;23046;50.112;8.952;2023-01-28T00:34:13;1.70;;;1.60;;
37151;SDS011;23046;50.112;8.952;2023-01-28T00:34:24;2.03;;;1.77;;
37151;SDS011;23046;50.112;8.952;2023-01-28T00:34:34;2.40;;;1.93;;
37151;SDS011;23046;50.112;8.952;2023-01-28T00:34:44;2.27;;;1.80;;
37151;SDS011;23046;50.112;8.952;2023-01-28T00:34:55;1.90;;;1.80;;
37151;SDS011;23046;50.112;8.952;2023-01-28T00:35:05;1.90;;;1.80;;
37151;SDS011;23046;50.112;8.952;2023-01-28T00:35:16;2.05;;;1.90;;
37151;SDS011;23046;50.112;8.952;2023-01-28T00:35:26;2.05;;;1.90;;
37151;SDS011;23046;50.112;8.952;2023-01-28T00:35:36;2.00;;;1.90;;
37151;SDS011;23046;50.112;8.952;2023-01-28T00:35:55;2.20;;;2.10;;
37151;SDS011;23046;50.112;8.952;2023-01-28T00:36:06;2.30;;;2.10;;
37151;SDS011;23046;50.112;8.952;2023-01-28T00:36:16;2.20;;;2.00;;
37151;SDS011;23046;50.112;8.952;2023-01-28T00:36:27;2.38;;;2.10;;
37151;SDS011;23046;50.112;8.952;2023-01-28T00:36:37;2.83;;;2.10;;
37151;SDS011;23046;50.112;8.952;2023-01-28T00:36:49;3.08;;;2.15;;
37151;SDS011;23046;50.112;8.952;2023-01-28T00:37:06;2.92;;;1.88;;
37151;SDS011;23046;50.112;8.952;2023-01-28T00:37:17;3.03;;;1.80;;
37151;SDS011;23046;50.112;8.952;2023-01-28T00:37:27;2.37;;;1.80;;
37151;SDS011;23046;50.112;8.952;2023-01-28T00:37:37;2.37;;;1.73;;
37151;SDS011;23046;50.112;8.952;2023-01-28T00:37:47;2.08;;;1.75;;
37151;SDS011;23046;50.112;8.952;2023-01-28T00:37:57;2.53;;;1.80;;
37151;SDS011;23046;50.112;8.952;2023-01-28T00:38:11;2.65;;;1.90;;
37151;SDS011;23046;50.112;8.952;2023-01-28T00:38:21;2.15;;;1.90;;
37151;SDS011;23046;50.112;8.952;2023-01-28T00:38:32;2.03;;;1.90;;
37151;SDS011;23046;50.112;8.952;2023-01-28T00:38:42;2.17;;;2.03;;
37151;SDS011;23046;50.112;8.952;2023-01-28T00:38:53;2.20;;;2.00;;
37151;SDS011;23046;50.112;8.952;2023-01-28T00:39:04;2.33;;;2.10;;
37151;SDS011;23046;50.112;8.952;2023-01-28T00:39:15;2.33;;;2.03;;
37151;SDS011;23046;50.112;8.952;2023-01-28T00:39:25;2.22;;;1.92;;
37151;SDS011;23046;50.112;8.952;2023-01-28T00:39:36;2.00;;;1.80;;
37151;SDS011;23046;50.112;8.952;2023-01-28T00:39:46;2.37;;;1.90;;
37151;SDS011;23046;50.112;8.952;2023-01-28T00:39:56;2.55;;;2.00;;
37151;SDS011;23046;50.112;8.952;2023-01-28T00:40:08;2.97;;;2.00;;
37151;SDS011;23046;50.112;8.952;2023-01-28T00:40:18;2.25;;;1.88;;
37151;SDS011;23046;50.112;8.952;2023-01-28T00:40:29;2.20;;;1.87;;
37151;SDS011;23046;50.112;8.952;2023-01-28T00:40:40;1.98;;;1.80;;
37151;SDS011;23046;50.112;8.952;2023-01-28T00:40:50;2.27;;;1.90;;
37151;SDS011;23046;50.112;8.952;2023-01-28T00:41:16;2.30;;;2.00;;
37151;SDS011;23046;50.112;8.952;2023-01-28T00:41:27;2.58;;;2.08;;
37151;SDS011;23046;50.112;8.952;2023-01-28T00:41:38;2.67;;;1.95;;
37151;SDS011;23046;50.112;8.952;2023-01-28T00:41:48;2.57;;;1.83;;
37151;SDS011;23046;50.112;8.952;2023-01-28T00:41:58;3.15;;;1.88;;
37151;SDS011;23046;50.112;8.952;2023-01-28T00:42:08;3.13;;;1.97;;
37151;SDS011;23046;50.112;8.952;2023-01-28T00:42:19;2.13;;;1.90;;
37151;SDS011;23046;50.112;8.952;2023-01-28T00:42:29;2.13;;;1.70;;
37151;SDS011;23046;50.112;8.952;2023-01-28T00:42:39;1.93;;;1.53;;
37151;SDS011;23046;50.112;8.952;2023-01-28T00:42:49;3.30;;;1.50;;
37151;SDS011;23046;50.112;8.952;2023-01-28T00:43:00;3.60;;;1.70;;
37151;SDS011;23046;50.112;8.952;2023-01-28T00:43:10;4.40;;;1.87;;
37151;SDS011;23046;50.112;8.952;2023-01-28T00:43:20;3.00;;;1.80;;
37151;SDS011;23046;50.112;8.952;2023-01-28T00:43:30;2.35;;;1.80;;
37151;SDS011;23046;50.112;8.952;2023-01-28T00:43:41;2.10;;;1.90;;
37151;SDS011;23046;50.112;8.952;2023-01-28T00:43:52;3.00;;;2.10;;
37151;SDS011;23046;50.112;8.952;2023-01-28T00:44:03;2.80;;;2.10;;
37151;SDS011;23046;50.112;8.952;2023-01-28T00:44:13;2.77;;;2.07;;
37151;SDS011;23046;50.112;8.952;2023-01-28T00:44:23;2.30;;;2.00;;
37151;SDS011;23046;50.112;8.952;2023-01-28T00:44:33;2.37;;;1.90;;
37151;SDS011;23046;50.112;8.952;2023-01-28T00:44:46;2.10;;;1.88;;
37151;SDS011;23046;50.112;8.952;2023-01-28T00:44:56;2.37;;;2.07;;
37151;SDS011;23046;50.112;8.952;2023-01-28T00:45:06;2.30;;;2.10;;
37151;SDS011;23046;50.112;8.952;2023-01-28T00:45:17;2.20;;;2.00;;
37151;SDS011;23046;50.112;8.952;2023-01-28T00:45:27;2.07;;;1.90;;
37151;SDS011;23046;50.112;8.952;2023-01-28T00:45:38;2.03;;;1.92;;
37151;SDS011;23046;50.112;8.952;2023-01-28T00:45:48;2.30;;;1.90;;
37151;SDS011;23046;50.112;8.952;2023-01-28T00:45:59;2.30;;;1.85;;
37151;SDS011;23046;50.112;8.952;2023-01-28T00:46:11;2.38;;;2.00;;
37151;SDS011;23046;50.112;8.952;2023-01-28T00:46:22;2.35;;;2.15;;
37151;SDS011;23046;50.112;8.952;2023-01-28T00:46:34;2.40;;;2.20;;
37151;SDS011;23046;50.112;8.952;2023-01-28T00:46:44;2.27;;;2.07;;
37151;SDS011;23046;50.112;8.952;2023-01-28T00:46:54;2.10;;;1.90;;
37151;SDS011;23046;50.112;8.952;2023-01-28T00:47:05;1.85;;;1.75;;
37151;SDS011;23046;50.112;8.952;2023-01-28T00:47:15;1.83;;;1.73;;
37151;SDS011;23046;50.112;8.952;2023-01-28T00:47:26;1.90;;;1.80;;
37151;SDS011;23046;50.112;8.952;2023-01-28T00:47:36;2.27;;;2.07;;
37151;SDS011;23046;50.112;8.952;2023-01-28T00:47:47;2.30;;;2.10;;
37151;SDS011;23046;50.112;8.952;2023-01-28T00:47:57;2.33;;;2.10;;
37151;SDS011;23046;50.112;8.952;2023-01-28T00:48:07;2.83;;;2.03;;
37151;SDS011;23046;50.112;8.952;2023-01-28T00:48:18;2.70;;;2.00;;
37151;SDS011;23046;50.112;8.952;2023-01-28T00:48:29;2.75;;;2.03;;
37151;SDS011;23046;50.112;8.952;2023-01-28T00:48:40;2.00;;;1.80;;
37151;SDS011;23046;50.112;8.952;2023-01-28T00:48:51;2.08;;;1.88;;
37151;SDS011;23046;50.112;8.952;2023-01-28T00:49:01;1.83;;;1.73;;
37151;SDS011;23046;50.112;8.952;2023-01-28T00:49:11;1.90;;;1.80;;
37151;SDS011;23046;50.112;8.952;2023-01-28T00:49:21;1.80;;;1.70;;
37151;SDS011;23046;50.112;8.952;2023-01-28T00:49:31;2.00;;;1.80;;
37151;SDS011;23046;50.112;8.952;2023-01-28T00:49:42;1.95;;;1.77;;
37151;SDS011;23046;50.112;8.952;2023-01-28T00:49:52;1.87;;;1.73;;
37151;SDS011;23046;50.112;8.952;2023-01-28T00:50:02;1.90;;;1.80;;
37151;SDS011;23046;50.112;8.952;2023-01-28T00:50:14;1.95;;;1.83;;
37151;SDS011;23046;50.112;8.952;2023-01-28T00:50:24;1.87;;;1.77;;
37151;SDS011;23046;50.112;8.952;2023-01-28T00:50:36;1.85;;;1.75;;
37151;SDS011;23046;50.112;8.952;2023-01-28T00:50:48;1.95;;;1.80;;
37151;SDS011;23046;50.112;8.952;2023-01-28T00:50:58;2.00;;;1.77;;
37151;SDS011;23046;50.112;8.952;2023-01-28T00:51:09;2.07;;;1.80;;
37151;SDS011;23046;50.112;8.952;2023-01-28T00:51:20;1.90;;;1.80;;
37151;SDS011;23046;50.112;8.952;2023-01-28T00:51:32;2.00;;;1.90;;
37151;SDS011;23046;50.112;8.952;2023-01-28T00:51:42;2.10;;;2.00;;
37151;SDS011;23046;50.112;8.952;2023-01-28T00:51:52;2.27;;;2.00;;
37151;SDS011;23046;50.112;8.952;2023-01-28T00:52:03;2.00;;;1.80;;
37151;SDS011;23046;50.112;8.952;2023-01-28T00:52:13;2.00;;;1.63;;
37151;SDS011;23046;50.112;8.952;2023-01-28T00:52:23;1.80;;;1.70;;
37151;SDS011;23046;50.112;8.952;2023-01-28T00:52:33;1.90;;;1.80;;
37151;SDS011;23046;50.112;8.952;2023-01-28T00:52:43;2.03;;;1.93;;
37151;SDS011;23046;50.112;8.952;2023-01-28T00:52:54;2.20;;;2.00;;
37151;SDS011;23046;50.112;8.952;2023-01-28T00:53:04;2.13;;;1.93;;
37151;SDS011;23046;50.112;8.952;2023-01-28T00:53:14;2.23;;;1.87;;
37151;SDS011;23046;50.112;8.952;2023-01-28T00:53:24;2.07;;;1.77;;
37151;SDS011;23046;50.112;8.952;2023-01-28T00:53:35;1.97;;;1.60;;
37151;SDS011;23046;50.112;8.952;2023-01-28T00:53:46;1.73;;;1.42;;
37151;SDS011;23046;50.112;8.952;2023-01-28T00:53:56;1.85;;;1.70;;
37151;SDS011;23046;50.112;8.952;2023-01-28T00:54:06;2.17;;;2.00;;
37151;SDS011;23046;50.112;8.952;2023-01-28T00:54:17;2.30;;;2.10;;
37151;SDS011;23046;50.112;8.952;2023-01-28T00:54:27;2.17;;;1.95;;
37151;SDS011;23046;50.112;8.952;2023-01-28T00:54:37;2.40;;;1.90;;
37151;SDS011;23046;50.112;8.952;2023-01-28T00:54:47;2.47;;;1.80;;
37151;SDS011;23046;50.112;8.952;2023-01-28T00:54:57;2.43;;;1.67;;
37151;SDS011;23046;50.112;8.952;2023-01-28T00:55:09;2.20;;;1.60;;
37151;SDS011;23046;50.112;8.952;2023-01-28T00:55:19;2.07;;;1.67;;
37151;SDS011;23046;50.112;8.952;2023-01-28T00:55:31;2.17;;;1.90;;
37151;SDS011;23046;50.112;8.952;2023-01-28T00:55:41;2.07;;;1.90;;
37151;SDS011;23046;50.112;8.952;2023-01-28T00:55:52;1.95;;;1.85;;
37151;SDS011;23046;50.112;8.952;2023-01-28T00:56:03;1.80;;;1.70;;
37151;SDS011;23046;50.112;8.952;2023-01-28T00:56:16;1.90;;;1.80;;
37151;SDS011;23046;50.112;8.952;2023-01-28T00:56:27;2.05;;;1.90;;
37151;SDS011;23046;50.112;8.952;2023-01-28T00:56:37;2.20;;;1.98;;
37151;SDS011;23046;50.112;8.952;2023-01-28T00:56:49;2.20;;;1.90;;
37151;SDS011;23046;50.112;8.952;2023-01-28T00:56:59;2.20;;;2.00;;
37151;SDS011;23046;50.112;8.952;2023-01-28T00:57:09;2.10;;;1.97;;
37151;SDS011;23046;50.112;8.952;2023-01-28T00:57:20;2.30;;;2.03;;
37151;SDS011;23046;50.112;8.952;2023-01-28T00:57:30;2.13;;;1.80;;
37151;SDS011;23046;50.112;8.952;2023-01-28T00:57:41;2.57;;;1.90;;
37151;SDS011;23046;50.112;8.952;2023-01-28T00:57:51;2.00;;;1.80;;
37151;SDS011;23046;50.112;8.952;2023-01-28T00:58:01;2.33;;;2.05;;
37151;SDS011;23046;50.112;8.952;2023-01-28T00:58:11;2.20;;;1.80;;
37151;SDS011;23046;50.112;8.952;2023-01-28T00:58:21;2.10;;;1.80;;
37151;SDS011;23046;50.112;8.952;2023-01-28T00:58:33;2.60;;;1.65;;
37151;SDS011;23046;50.112;8.952;2023-01-28T00:58:43;2.97;;;1.80;;
37151;SDS011;23046;50.112;8.952;2023-01-28T00:58:53;3.40;;;1.80;;
37151;SDS011;23046;50.112;8.952;2023-01-28T00:59:03;3.17;;;1.90;;
37151;SDS011;23046;50.112;8.952;2023-01-28T00:59:14;2.60;;;1.90;;
37151;SDS011;23046;50.112;8.952;2023-01-28T00:59:24;2.92;;;2.00;;
37151;SDS011;23046;50.112;8.952;2023-01-28T00:59:34;2.57;;;2.03;;
37151;SDS011;23046;50.112;8.952;2023-01-28T00:59:44;2.30;;;2.07;;
37151;SDS011;23046;50.112;8.952;2023-01-28T00:59:54;2.20;;;2.00;;
37151;SDS011;23046;50.112;8.952;2023-01-28T01:00:05;2.00;;;1.90;;
37151;SDS011;23046;50.112;8.952;2023-01-28T01:00:16;1.90;;;1.80;;
37151;SDS011;23046;50.112;8.952;2023-01-28T01:00:29;1.90;;;1.80;;
37151;SDS011;23046;50.112;8.952;2023-01-28T01:00:39;1.85;;;1.75;;
37151;SDS011;23046;50.112;8.952;2023-01-28T01:00:50;2.00;;;1.80;;
37151;SDS011;23046;50.112;8.952;2023-01-28T01:01:10;2.80;;;1.92;;
37151;SDS011;23046;50.112;8.952;2023-01-28T01:01:22;2.55;;;1.90;;
37151;SDS011;23046;50.112;8.952;2023-01-28T01:01:33;2.00;;;1.70;;
37151;SDS011;23046;50.112;8.952;2023-01-28T01:01:43;1.90;;;1.63;;
37151;SDS011;23046;50.112;8.952;2023-01-28T01:01:54;2.23;;;1.73;;
37151;SDS011;23046;50.112;8.952;2023-01-28T01:02:21;1.90;;;1.80;;
37151;SDS011;23046;50.112;8.952;2023-01-28T01:02:32;2.00;;;1.90;;
37151;SDS011;23046;50.112;8.952;2023-01-28T01:02:42;2.20;;;2.00;;
37151;SDS011;23046;50.112;8.952;2023-01-28T01:02:52;2.10;;;1.90;;
37151;SDS011;23046;50.112;8.952;2023-01-28T01:03:02;1.80;;;1.70;;
37151;SDS011;23046;50.112;8.952;2023-01-28T01:03:13;1.70;;;1.60;;
37151;SDS011;23046;50.112;8.952;2023-01-28T01:03:23;2.67;;;1.67;;
37151;SDS011;23046;50.112;8.952;2023-01-28T01:03:33;3.13;;;1.73;;
37151;SDS011;23046;50.112;8.952;2023-01-28T01:03:43;3.28;;;1.80;;
37151;SDS011;23046;50.112;8.952;2023-01-28T01:03:54;2.10;;;1.80;;
37151;SDS011;23046;50.112;8.952;2023-01-28T01:04:12;2.10;;;1.88;;
37151;SDS011;23046;50.112;8.952;2023-01-28T01:04:22;2.07;;;1.83;;
37151;SDS011;23046;50.112;8.952;2023-01-28T01:04:36;2.80;;;1.85;;
37151;SDS011;23046;50.112;8.952;2023-01-28T01:04:47;2.80;;;1.90;;
37151;SDS011;23046;50.112;8.952;2023-01-28T01:05:07;2.83;;;1.80;;
37151;SDS011;23046;50.112;8.952;2023-01-28T01:05:17;3.00;;;1.90;;
37151;SDS011;23046;50.112;8.952;2023-01-28T01:05:27;2.00;;;1.90;;
37151;SDS011;23046;50.112;8.952;2023-01-28T01:05:38;2.30;;;2.10;;
37151;SDS011;23046;50.112;8.952;2023-01-28T01:05:51;2.95;;;2.10;;